Portada
METAR-TAF:

METAR-TAF

Aeropuertos :

Aeropuerto de Málaga-Costa del Sol

Málaga, España

latitud: 36-40N, longitud: 004-29W, altitud: 16 m

Observación

El informe se hizo hace 35 minutos, a las 23:30 UTC
Viento calma
Temperatura 13°C
Humedad 88%
Presión 1012 hPa
Visibilidad 10 km o más
Escasas nubes a una altura de 3000 ft
Nubes dispersas a una altura de 5000 ft

METAR: LEMG 202330Z 00000KT 9999 FEW030 SCT050 13/11 Q1012 NOSIG

Hora: 01:05 (00:05 UTC)

Pronóstico

El informe se hizo hace 1 hora y 5 minutos, a las 23:00 UTC
Pronóstico válido del 21 a las 00 UTC al 21 a las 24 UTC
Viento 4 kt del oeste-noroeste
Visibilidad 10 km o más
Escasas nubes a una altura de 1500 ft
Nubes dispersas a una altura de 4000 ft
Probabilidad 40% :
Temporalmente
del 21 a las 00 UTC al 21 a las 13 UTC
Visibilidad: 4000 m
Cielo nuboso a una altura de 1000 ft
lluvia

TAF: LEMG 202300Z 2100/2124 29004KT 9999 FEW015 SCT040 TX17/2113Z TN10/2106Z PROB40 TEMPO 2100/2113 4000 RA BKN010

Observaciones y pronósticos meteorológicos de más de 4000 aeropuertos (mensajes METAR y TAF).

Los puntos amarillos y rojos representan las estaciones disponibles.

Ponga el ratón en el punto deseado para ver el nombre de la estación.

Haga clic para ver las observaciones y los pronósticos meteorológicos.

Para cambiar el mapa : haga clic en los botones verdes con una cruz de color negro para hacer un zoom, en el botón verde con un guión para alejar o en las flechas verdes para mapas adyacentes.


METAR-TAF: